createdAt,value
2022-12-04T00:01:15.666Z,98047.25
2022-12-04T00:03:43.098Z,98051.38
2022-12-04T00:06:16.376Z,98045.28
2022-12-04T00:08:44.990Z,98050.38
2022-12-04T00:11:14.077Z,98041.06
2022-12-04T00:13:42.236Z,98052.16
2022-12-04T00:16:13.436Z,98048.88
2022-12-04T00:18:40.732Z,98051.31
2022-12-04T00:21:10.558Z,98048.78
2022-12-04T00:23:38.848Z,98046.88
2022-12-04T00:26:21.869Z,98043.34
2022-12-04T00:28:49.810Z,98034.53
2022-12-04T00:31:21.316Z,98044.91
2022-12-04T00:33:48.706Z,98042.31
2022-12-04T00:36:19.571Z,98030.56
2022-12-04T00:38:47.427Z,98032.56
2022-12-04T00:41:19.112Z,98029.94
2022-12-04T00:43:46.344Z,98033.28
2022-12-04T00:46:14.126Z,98039.75
2022-12-04T00:48:41.826Z,98034.00
2022-12-04T00:51:14.786Z,98038.97
2022-12-04T00:53:42.137Z,98044.97
2022-12-04T00:56:14.494Z,98035.47
2022-12-04T00:58:42.065Z,98034.75
2022-12-04T01:01:13.563Z,98037.88
2022-12-04T01:03:40.948Z,98033.34
2022-12-04T01:06:08.566Z,98025.63
2022-12-04T01:08:35.576Z,98022.91
2022-12-04T01:11:06.907Z,98029.22
2022-12-04T01:13:33.945Z,98024.91
2022-12-04T01:16:00.907Z,98021.41
2022-12-04T01:18:27.925Z,98023.13
2022-12-04T01:20:54.853Z,98015.31
2022-12-04T01:23:21.910Z,98012.06
2022-12-04T01:25:57.701Z,98009.72
2022-12-04T01:28:25.579Z,98020.94
2022-12-04T01:31:13.566Z,98014.81
2022-12-04T01:33:41.665Z,98022.69
2022-12-04T01:36:15.825Z,98017.94
2022-12-04T01:38:43.235Z,98006.22
2022-12-04T01:41:14.508Z,98005.69
2022-12-04T01:43:42.007Z,98007.50
2022-12-04T01:46:10.200Z,98010.88
2022-12-04T01:48:53.824Z,98011.81
2022-12-04T01:51:31.813Z,98009.13
2022-12-04T01:54:28.423Z,98001.78
2022-12-04T01:57:09.428Z,98012.44
2022-12-04T01:59:49.236Z,98009.13
2022-12-04T02:02:23.540Z,98011.25
2022-12-04T02:04:50.895Z,98012.88
2022-12-04T02:07:17.853Z,98022.22
2022-12-04T02:09:45.515Z,98025.28
2022-12-04T02:12:25.063Z,98025.84
2022-12-04T02:15:31.653Z,98006.72
2022-12-04T02:18:31.013Z,98002.00
2022-12-04T02:21:25.713Z,98017.53
2022-12-04T02:24:21.988Z,98002.16
2022-12-04T02:26:54.625Z,98001.06
2022-12-04T02:29:48.936Z,98002.00
2022-12-04T02:32:23.894Z,98000.09
2022-12-04T02:35:09.219Z,97993.19
2022-12-04T02:37:46.907Z,97989.75
2022-12-04T02:40:30.720Z,97992.28
2022-12-04T02:43:41.451Z,97993.03
2022-12-04T02:46:36.981Z,97994.88
2022-12-04T02:49:13.227Z,97993.13
2022-12-04T02:51:43.515Z,97985.38
2022-12-04T02:54:21.657Z,97973.56
2022-12-04T02:56:51.872Z,97985.53
2022-12-04T02:59:34.808Z,97979.84
2022-12-04T03:02:10.440Z,97981.56
2022-12-04T03:04:40.035Z,97973.53
2022-12-04T03:07:13.969Z,97985.53
2022-12-04T03:10:00.159Z,97986.94
2022-12-04T03:12:40.353Z,97982.56
2022-12-04T03:15:22.301Z,97978.72
2022-12-04T03:18:19.036Z,97968.91
2022-12-04T03:20:50.987Z,97969.22
2022-12-04T03:23:29.879Z,97961.56
2022-12-04T03:26:05.084Z,97957.19
2022-12-04T03:28:46.950Z,97957.13
2022-12-04T03:31:23.258Z,97949.81
2022-12-04T03:33:51.872Z,97950.53
2022-12-04T03:36:28.643Z,97949.91
2022-12-04T03:39:03.843Z,97955.03
2022-12-04T03:41:49.722Z,97952.81
2022-12-04T03:44:58.518Z,97951.13
2022-12-04T03:47:43.100Z,97940.66
2022-12-04T03:50:42.936Z,97934.44
2022-12-04T03:53:25.981Z,97943.47
2022-12-04T03:56:02.523Z,97950.84
2022-12-04T03:58:34.299Z,97950.59
2022-12-04T04:01:04.164Z,97964.69
2022-12-04T04:03:38.668Z,97953.50
2022-12-04T04:06:16.165Z,97950.59
2022-12-04T04:08:49.159Z,97953.97
2022-12-04T04:11:20.539Z,97950.69
2022-12-04T04:14:19.537Z,97968.75
2022-12-04T04:17:14.193Z,97969.53
2022-12-04T04:20:03.611Z,97974.81
2022-12-04T04:22:53.022Z,97975.88
2022-12-04T04:25:25.959Z,97972.34
2022-12-04T04:27:58.843Z,97987.16
2022-12-04T04:30:26.658Z,97980.63
2022-12-04T04:33:16.774Z,97982.09
2022-12-04T04:36:09.016Z,97985.31
2022-12-04T04:39:10.700Z,97980.25
2022-12-04T04:41:55.076Z,97987.75
2022-12-04T04:44:29.944Z,97985.66
2022-12-04T04:47:03.955Z,97986.00
2022-12-04T04:49:34.205Z,97985.59
2022-12-04T04:52:02.128Z,97980.56
2022-12-04T04:54:31.271Z,97979.84
2022-12-04T04:56:58.209Z,97983.16
2022-12-04T04:59:25.111Z,97984.56
2022-12-04T05:01:52.334Z,97986.28
2022-12-04T05:04:19.568Z,97985.16
2022-12-04T05:06:47.823Z,97983.84
2022-12-04T05:09:14.977Z,97984.06
2022-12-04T05:11:41.941Z,97984.84
2022-12-04T05:14:09.615Z,97994.38
2022-12-04T05:16:36.929Z,97984.72
2022-12-04T05:19:22.223Z,97988.31
2022-12-04T05:21:49.177Z,97984.00
2022-12-04T05:24:16.100Z,97982.34
2022-12-04T05:26:43.079Z,97985.00
2022-12-04T05:29:09.981Z,97985.94
2022-12-04T05:31:36.975Z,97981.25
2022-12-04T05:34:03.966Z,97979.56
2022-12-04T05:36:30.922Z,97983.84
2022-12-04T05:38:57.844Z,97982.22
2022-12-04T05:41:24.751Z,97985.00
2022-12-04T05:43:52.315Z,97978.84
2022-12-04T05:46:19.276Z,97969.38
2022-12-04T05:48:46.297Z,97977.97
2022-12-04T05:51:13.423Z,97971.19
2022-12-04T05:53:40.880Z,97969.31
2022-12-04T05:56:08.546Z,97969.31
2022-12-04T05:58:38.895Z,97967.81
2022-12-04T06:01:24.958Z,97967.00
2022-12-04T06:03:52.198Z,97974.56
2022-12-04T06:06:22.992Z,97975.34
2022-12-04T06:08:56.412Z,97970.97
2022-12-04T06:11:36.365Z,97970.13
2022-12-04T06:14:07.403Z,97971.91
2022-12-04T06:16:38.848Z,97969.97
2022-12-04T06:19:15.074Z,97972.13
2022-12-04T06:21:44.969Z,97964.78
2022-12-04T06:24:18.824Z,97965.75
2022-12-04T06:27:11.196Z,97970.13
2022-12-04T06:29:33.414Z,97973.41
2022-12-04T06:32:00.471Z,97967.00
2022-12-04T06:34:27.615Z,97972.75
2022-12-04T06:36:54.640Z,97966.69
2022-12-04T06:39:21.600Z,97974.56
2022-12-04T06:41:48.600Z,97975.03
2022-12-04T06:44:16.337Z,97976.72
2022-12-04T06:46:46.815Z,97963.94
2022-12-04T06:49:14.787Z,97961.50
2022-12-04T06:51:41.926Z,97969.97
2022-12-04T06:54:10.251Z,97970.06
2022-12-04T06:56:37.349Z,97970.81
2022-12-04T06:59:05.137Z,97972.41
2022-12-04T07:01:34.505Z,97972.53
2022-12-04T07:04:04.380Z,97965.38
2022-12-04T07:06:36.983Z,97973.41
2022-12-04T07:09:12.374Z,97972.28
2022-12-04T07:11:41.131Z,97978.19
2022-12-04T07:14:08.795Z,97973.28
2022-12-04T07:16:40.730Z,97978.78
2022-12-04T07:19:13.582Z,97987.91
2022-12-04T07:21:41.539Z,97990.97
2022-12-04T07:24:08.740Z,97980.00
2022-12-04T07:26:35.722Z,97969.38
2022-12-04T07:29:02.644Z,97973.66
2022-12-04T07:31:30.382Z,97970.81
2022-12-04T07:33:58.542Z,97975.97
2022-12-04T07:36:26.848Z,97979.19
2022-12-04T07:38:56.345Z,97972.19
2022-12-04T07:41:23.999Z,97978.56
2022-12-04T07:43:51.102Z,97980.41
2022-12-04T07:46:22.410Z,97977.41
2022-12-04T07:48:49.505Z,97982.94
2022-12-04T07:51:23.147Z,97976.13
2022-12-04T07:53:53.174Z,97981.25
2022-12-04T07:56:21.409Z,97976.41
2022-12-04T07:58:48.681Z,97984.16
2022-12-04T08:01:22.074Z,97986.06
2022-12-04T08:03:52.350Z,97993.59
2022-12-04T08:06:22.185Z,97992.59
2022-12-04T08:08:50.033Z,97991.81
2022-12-04T08:11:22.216Z,97997.41
2022-12-04T08:14:11.638Z,97983.94
2022-12-04T08:16:38.616Z,97977.78
2022-12-04T08:19:05.842Z,97977.03
2022-12-04T08:21:33.208Z,97973.41
2022-12-04T08:24:01.477Z,97978.69
2022-12-04T08:26:30.561Z,97971.72
2022-12-04T08:28:58.348Z,97970.22
2022-12-04T08:31:28.261Z,97969.28
2022-12-04T08:33:57.739Z,97974.16
2022-12-04T08:36:25.277Z,97984.59
2022-12-04T08:38:52.636Z,97984.47
2022-12-04T08:41:21.470Z,97987.16
2022-12-04T08:43:48.541Z,97989.53
2022-12-04T08:46:18.614Z,97985.22
2022-12-04T08:48:47.104Z,97976.50
2022-12-04T08:51:24.233Z,97985.31
2022-12-04T08:53:56.468Z,97987.81
2022-12-04T08:56:24.617Z,97995.91
2022-12-04T08:58:51.701Z,98004.06
2022-12-04T09:01:19.217Z,98010.78
2022-12-04T09:03:46.183Z,98015.75
2022-12-04T09:06:16.725Z,98011.91
2022-12-04T09:08:44.072Z,98018.81
2022-12-04T09:11:19.042Z,98025.03
2022-12-04T09:13:46.878Z,98027.41
2022-12-04T09:16:19.154Z,98031.22
2022-12-04T09:18:47.378Z,98024.09
2022-12-04T09:21:17.431Z,98022.63
2022-12-04T09:23:45.684Z,98019.63
2022-12-04T09:26:39.125Z,98023.94
2022-12-04T09:29:06.597Z,98020.50
2022-12-04T09:31:34.404Z,98004.38
2022-12-04T09:34:02.340Z,98008.06
2022-12-04T09:36:29.417Z,98000.84
2022-12-04T09:38:58.069Z,97994.22
2022-12-04T09:41:45.750Z,97991.66
2022-12-04T09:44:32.721Z,97976.13
2022-12-04T09:47:05.401Z,97976.44
2022-12-04T09:49:54.542Z,97966.94
2022-12-04T09:52:33.364Z,97958.63
2022-12-04T09:55:03.359Z,97949.72
2022-12-04T09:57:42.978Z,97939.28
2022-12-04T10:00:17.296Z,97943.06
2022-12-04T10:02:57.751Z,97933.47
2022-12-04T10:06:01.939Z,97939.44
2022-12-04T10:08:32.215Z,97939.63
2022-12-04T10:11:10.383Z,97929.28
2022-12-04T10:14:11.467Z,97926.78
2022-12-04T10:17:17.181Z,97931.00
2022-12-04T10:19:49.935Z,97925.75
2022-12-04T10:22:59.051Z,97920.78
2022-12-04T10:25:28.913Z,97910.63
2022-12-04T10:28:25.086Z,97916.72
2022-12-04T10:30:55.693Z,97923.47
2022-12-04T10:33:44.127Z,97930.84
2022-12-04T10:36:19.176Z,97928.03
2022-12-04T10:38:57.831Z,97925.91
2022-12-04T10:42:01.883Z,97931.16
2022-12-04T10:44:28.902Z,97942.00
2022-12-04T10:47:06.338Z,97940.38
2022-12-04T10:49:35.713Z,97937.25
2022-12-04T10:52:04.697Z,97934.06
2022-12-04T10:54:59.857Z,97935.50
2022-12-04T10:57:56.183Z,97930.22
2022-12-04T11:00:34.711Z,97933.63
2022-12-04T11:03:26.522Z,97931.69
2022-12-04T11:05:57.223Z,97933.84
2022-12-04T11:08:31.387Z,97921.94
2022-12-04T11:11:04.184Z,97917.22
2022-12-04T11:13:31.244Z,97909.56
2022-12-04T11:15:59.805Z,97907.22
2022-12-04T11:18:34.032Z,97894.91
2022-12-04T11:21:06.265Z,97889.63
2022-12-04T11:23:43.512Z,97888.69
2022-12-04T11:26:11.831Z,97896.00
2022-12-04T11:28:42.447Z,97905.03
2022-12-04T11:31:15.703Z,97902.16
2022-12-04T11:33:53.259Z,97899.00
2022-12-04T11:36:31.192Z,97894.38
2022-12-04T11:39:13.440Z,97881.22
2022-12-04T11:41:40.881Z,97885.06
2022-12-04T11:44:22.975Z,97889.47
2022-12-04T11:46:55.984Z,97903.19
2022-12-04T11:49:25.767Z,97909.81
2022-12-04T11:52:14.424Z,97913.41
2022-12-04T11:54:59.679Z,97910.38
2022-12-04T11:57:35.448Z,97899.13
2022-12-04T12:00:17.507Z,97885.31
2022-12-04T12:03:13.526Z,97897.34
2022-12-04T12:06:19.529Z,97891.75
2022-12-04T12:08:57.406Z,97880.38
2022-12-04T12:11:27.961Z,97877.97
2022-12-04T12:14:34.887Z,97879.72
2022-12-04T12:17:32.141Z,97878.81
2022-12-04T12:20:18.252Z,97884.38
2022-12-04T12:23:08.213Z,97886.75
2022-12-04T12:25:50.387Z,97871.31
2022-12-04T12:28:47.020Z,97863.16
2022-12-04T12:31:38.598Z,97869.50
2022-12-04T12:34:35.171Z,97860.41
2022-12-04T12:37:44.338Z,97847.63
2022-12-04T12:40:35.033Z,97838.69
2022-12-04T12:43:16.609Z,97850.53
2022-12-04T12:46:02.521Z,97858.75
2022-12-04T12:48:58.398Z,97854.44
2022-12-04T12:51:48.923Z,97858.94
2022-12-04T12:54:48.540Z,97843.81
2022-12-04T12:57:33.963Z,97842.97
2022-12-04T13:00:18.026Z,97849.97
2022-12-04T13:03:04.032Z,97843.81
2022-12-04T13:05:39.613Z,97854.94
2022-12-04T13:08:25.067Z,97849.78
2022-12-04T13:11:13.734Z,97854.38
2022-12-04T13:13:49.780Z,97864.66
2022-12-04T13:16:35.073Z,97862.41
2022-12-04T13:19:20.207Z,97866.03
2022-12-04T13:22:27.493Z,97857.56
2022-12-04T13:25:27.868Z,97861.00
2022-12-04T13:28:06.846Z,97868.00
2022-12-04T13:30:45.361Z,97857.28
2022-12-04T13:34:08.135Z,97864.09
2022-12-04T13:36:53.228Z,97884.25
2022-12-04T13:39:31.819Z,97882.13
2022-12-04T13:42:03.630Z,97872.97
2022-12-04T13:44:32.887Z,97871.44
2022-12-04T13:47:05.223Z,97864.56
2022-12-04T13:49:35.506Z,97858.94
2022-12-04T13:52:07.002Z,97861.38
2022-12-04T13:54:36.687Z,97862.50
2022-12-04T13:57:15.760Z,97871.75
2022-12-04T13:59:43.869Z,97869.88
2022-12-04T14:02:35.279Z,97864.06
2022-12-04T14:05:06.956Z,97849.50
2022-12-04T14:07:38.032Z,97845.28
2022-12-04T14:10:36.652Z,97828.50
2022-12-04T14:13:19.025Z,97819.34
2022-12-04T14:15:46.192Z,97817.50
2022-12-04T14:18:13.262Z,97825.22
2022-12-04T14:20:42.477Z,97819.16
2022-12-04T14:23:22.485Z,97824.94
2022-12-04T14:25:51.268Z,97831.69
2022-12-04T14:28:25.042Z,97828.97
2022-12-04T14:31:14.063Z,97854.28
2022-12-04T14:33:58.465Z,97852.81
2022-12-04T14:36:28.504Z,97864.44
2022-12-04T14:39:25.760Z,97852.13
2022-12-04T14:42:03.506Z,97850.50
2022-12-04T14:44:31.639Z,97864.88
2022-12-04T14:47:40.187Z,97863.44
2022-12-04T14:50:32.400Z,97866.47
2022-12-04T14:53:08.781Z,97856.03
2022-12-04T14:56:20.174Z,97851.16
2022-12-04T14:58:47.322Z,97860.13
2022-12-04T15:01:30.848Z,97868.59
2022-12-04T15:04:07.708Z,97880.34
2022-12-04T15:06:34.746Z,97869.25
2022-12-04T15:09:23.284Z,97873.44
2022-12-04T15:12:11.538Z,97880.53
2022-12-04T15:14:46.140Z,97890.97
2022-12-04T15:17:18.647Z,97892.44
2022-12-04T15:19:45.884Z,97875.41
2022-12-04T15:22:28.500Z,97883.25
2022-12-04T15:24:56.137Z,97872.03
2022-12-04T15:27:31.968Z,97879.75
2022-12-04T15:30:02.628Z,97878.69
2022-12-04T15:32:31.158Z,97886.56
2022-12-04T15:35:05.553Z,97887.50
2022-12-04T15:37:34.007Z,97881.75
2022-12-04T15:40:05.820Z,97887.91
2022-12-04T15:42:32.788Z,97881.56
2022-12-04T15:45:20.055Z,97868.28
2022-12-04T15:47:46.988Z,97872.56
2022-12-04T15:50:16.505Z,97874.03
2022-12-04T15:53:23.259Z,97872.25
2022-12-04T15:56:01.286Z,97876.25
2022-12-04T15:58:38.873Z,97869.91
2022-12-04T16:01:11.906Z,97870.50
2022-12-04T16:03:42.034Z,97863.84
2022-12-04T16:06:28.514Z,97862.22
2022-12-04T16:09:15.133Z,97866.84
2022-12-04T16:11:43.866Z,97865.00
2022-12-04T16:14:15.934Z,97873.94
2022-12-04T16:16:52.393Z,97867.88
2022-12-04T16:19:34.735Z,97866.47
2022-12-04T16:22:04.519Z,97862.00
2022-12-04T16:24:31.443Z,97871.56
2022-12-04T16:27:00.467Z,97859.97
2022-12-04T16:29:27.446Z,97871.31
2022-12-04T16:32:01.132Z,97867.53
2022-12-04T16:34:29.769Z,97872.25
2022-12-04T16:36:56.864Z,97871.88
2022-12-04T16:39:23.908Z,97865.34
2022-12-04T16:41:50.876Z,97857.34
2022-12-04T16:44:17.995Z,97854.34
2022-12-04T16:46:45.411Z,97853.53
2022-12-04T16:49:13.348Z,97861.13
2022-12-04T16:51:49.548Z,97860.84
2022-12-04T16:54:17.008Z,97856.53
2022-12-04T16:56:44.027Z,97855.22
2022-12-04T16:59:12.457Z,97849.00
2022-12-04T17:01:45.823Z,97848.25
2022-12-04T17:04:13.031Z,97844.94
2022-12-04T17:06:40.694Z,97840.72
2022-12-04T17:09:08.744Z,97849.91
2022-12-04T17:11:36.007Z,97853.06
2022-12-04T17:14:07.068Z,97844.28
2022-12-04T17:16:41.632Z,97839.63
2022-12-04T17:19:10.348Z,97827.59
2022-12-04T17:21:38.399Z,97828.81
2022-12-04T17:24:06.174Z,97832.47
2022-12-04T17:26:33.117Z,97828.28
2022-12-04T17:29:00.428Z,97830.31
2022-12-04T17:31:27.943Z,97839.50
2022-12-04T17:33:56.576Z,97851.63
2022-12-04T17:36:27.451Z,97854.78
2022-12-04T17:38:57.391Z,97853.91
2022-12-04T17:41:24.834Z,97863.34
2022-12-04T17:43:51.875Z,97858.13
2022-12-04T17:46:24.235Z,97859.22
2022-12-04T17:48:51.665Z,97860.91
2022-12-04T17:51:22.051Z,97865.78
2022-12-04T17:53:49.876Z,97867.31
2022-12-04T17:56:20.410Z,97877.50
2022-12-04T17:58:48.356Z,97870.34
2022-12-04T18:01:22.761Z,97865.38
2022-12-04T18:04:05.481Z,97866.63
2022-12-04T18:06:39.935Z,97871.25
2022-12-04T18:09:09.693Z,97877.25
2022-12-04T18:11:39.090Z,97883.06
2022-12-04T18:14:18.686Z,97876.06
2022-12-04T18:16:53.272Z,97878.84
2022-12-04T18:19:26.827Z,97870.41
2022-12-04T18:21:55.426Z,97873.59
2022-12-04T18:24:23.996Z,97875.81
2022-12-04T18:26:51.739Z,97873.81
2022-12-04T18:29:22.536Z,97880.19
2022-12-04T18:31:51.023Z,97880.03
2022-12-04T18:34:19.464Z,97877.44
2022-12-04T18:36:47.004Z,97884.91
2022-12-04T18:39:23.433Z,97884.66
2022-12-04T18:41:51.468Z,97891.66
2022-12-04T18:44:18.548Z,97885.75
2022-12-04T18:46:45.665Z,97890.78
2022-12-04T18:49:12.698Z,97896.34
2022-12-04T18:51:49.200Z,97898.34
2022-12-04T18:54:21.393Z,97903.69
2022-12-04T18:56:49.512Z,97897.03
2022-12-04T18:59:23.049Z,97909.00
2022-12-04T19:01:51.168Z,97899.47
2022-12-04T19:04:20.732Z,97910.06
2022-12-04T19:06:55.484Z,97901.91
2022-12-04T19:10:02.107Z,97905.28
2022-12-04T19:12:14.444Z,97915.53
2022-12-04T19:14:41.445Z,97919.09
2022-12-04T19:17:08.478Z,97914.88
2022-12-04T19:19:35.500Z,97919.25
2022-12-04T19:22:03.993Z,97927.66
2022-12-04T19:24:31.352Z,97921.63
2022-12-04T19:26:58.389Z,97932.53
2022-12-04T19:29:25.360Z,97941.38
2022-12-04T19:31:57.623Z,97932.84
2022-12-04T19:34:26.463Z,97939.94
2022-12-04T19:36:55.102Z,97946.84
2022-12-04T19:39:22.592Z,97951.13
2022-12-04T19:41:49.774Z,97947.59
2022-12-04T19:44:47.429Z,97946.94
2022-12-04T19:47:04.133Z,97953.75
2022-12-04T19:49:31.261Z,97961.19
2022-12-04T19:51:58.263Z,97969.59
2022-12-04T19:54:25.977Z,97969.84
2022-12-04T19:56:53.028Z,97972.69
2022-12-04T19:59:20.568Z,97976.25
2022-12-04T20:01:48.168Z,97979.03
2022-12-04T20:04:15.586Z,97978.09
2022-12-04T20:06:45.611Z,97974.41
2022-12-04T20:09:16.466Z,97976.75
2022-12-04T20:11:43.636Z,97982.22
2022-12-04T20:14:10.901Z,97977.78
2022-12-04T20:16:39.927Z,97979.69
2022-12-04T20:19:08.985Z,97979.03
2022-12-04T20:21:36.027Z,97985.09
2022-12-04T20:24:06.264Z,97986.09
2022-12-04T20:26:38.178Z,97979.53
2022-12-04T20:29:06.842Z,97979.03
2022-12-04T20:31:40.667Z,97979.97
2022-12-04T20:34:11.761Z,97984.34
2022-12-04T20:36:42.662Z,97981.56
2022-12-04T20:39:12.168Z,97983.22
2022-12-04T20:41:40.076Z,97989.38
2022-12-04T20:44:08.951Z,97987.97
2022-12-04T20:46:38.501Z,97992.41
2022-12-04T20:49:08.542Z,97994.63
2022-12-04T20:51:39.791Z,97995.72
2022-12-04T20:54:09.521Z,97993.94
2022-12-04T20:56:37.931Z,97996.38
2022-12-04T20:59:08.744Z,97990.47
2022-12-04T21:01:36.887Z,97992.94
2022-12-04T21:04:05.329Z,97994.69
2022-12-04T21:06:37.257Z,97993.03
2022-12-04T21:09:20.186Z,97993.53
2022-12-04T21:11:53.831Z,97998.16
2022-12-04T21:14:46.292Z,97989.03
2022-12-04T21:17:18.808Z,97989.66
2022-12-04T21:19:48.757Z,97992.09
2022-12-04T21:22:17.860Z,97982.66
2022-12-04T21:24:44.811Z,97993.34
2022-12-04T21:27:17.420Z,97993.78
2022-12-04T21:29:48.211Z,97997.75
2022-12-04T21:32:15.388Z,98001.69
2022-12-04T21:34:42.764Z,97999.34
2022-12-04T21:37:10.191Z,97991.00
2022-12-04T21:39:37.862Z,97998.41
2022-12-04T21:42:23.978Z,97998.56
2022-12-04T21:44:51.615Z,97999.94
2022-12-04T21:47:18.959Z,97997.31
2022-12-04T21:49:47.615Z,97996.81
2022-12-04T21:52:18.912Z,97999.34
2022-12-04T21:54:49.792Z,98000.03
2022-12-04T21:57:17.445Z,97998.25
2022-12-04T21:59:44.805Z,97997.50
2022-12-04T22:02:13.140Z,97995.63
2022-12-04T22:04:40.668Z,97998.16
2022-12-04T22:07:07.860Z,97992.44
2022-12-04T22:09:36.023Z,98003.47
2022-12-04T22:12:14.657Z,98009.13
2022-12-04T22:14:49.908Z,98010.72
2022-12-04T22:17:16.872Z,98021.16
2022-12-04T22:19:43.901Z,98017.88
2022-12-04T22:22:11.161Z,98025.56
2022-12-04T22:24:38.049Z,98030.56
2022-12-04T22:27:04.986Z,98035.97
2022-12-04T22:30:02.092Z,98028.06
2022-12-04T22:32:20.079Z,98031.56
2022-12-04T22:34:50.630Z,98040.19
2022-12-04T22:37:17.596Z,98042.69
2022-12-04T22:39:44.582Z,98033.78
2022-12-04T22:42:11.511Z,98041.00
2022-12-04T22:44:38.502Z,98042.00
2022-12-04T22:47:05.511Z,98045.88
2022-12-04T22:49:32.563Z,98047.03
2022-12-04T22:51:59.688Z,98057.84
2022-12-04T22:54:26.631Z,98058.97
2022-12-04T22:56:53.575Z,98055.47
2022-12-04T22:59:20.522Z,98056.13
2022-12-04T23:01:47.433Z,98056.56
2022-12-04T23:04:14.385Z,98054.31
2022-12-04T23:06:41.675Z,98061.31
2022-12-04T23:09:15.100Z,98059.03
2022-12-04T23:11:42.939Z,98061.59
2022-12-04T23:14:13.777Z,98057.53
2022-12-04T23:16:41.779Z,98049.19
2022-12-04T23:19:14.714Z,98050.72
2022-12-04T23:21:42.216Z,98048.53
2022-12-04T23:24:10.464Z,98050.66
2022-12-04T23:26:41.412Z,98046.22
2022-12-04T23:29:29.582Z,98051.97
2022-12-04T23:31:55.986Z,98046.09
2022-12-04T23:34:22.985Z,98068.00
2022-12-04T23:36:49.913Z,98063.44
2022-12-04T23:39:16.928Z,98071.44
2022-12-04T23:41:43.884Z,98073.63
2022-12-04T23:44:10.843Z,98072.91
2022-12-04T23:46:37.852Z,98066.63
2022-12-04T23:49:04.920Z,98079.88
2022-12-04T23:51:31.892Z,98091.56
2022-12-04T23:53:59.251Z,98095.06
2022-12-04T23:56:28.079Z,98097.38
2022-12-04T23:58:57.308Z,98102.59
